createdAt,value
2023-03-10T00:00:02.132Z,45.67
2023-03-10T00:02:30.663Z,50.78
2023-03-10T00:04:58.558Z,46.13
2023-03-10T00:14:40.430Z,43.70
2023-03-10T00:17:08.144Z,53.15
2023-03-10T00:19:35.514Z,43.58
2023-03-10T00:22:03.281Z,46.42
2023-03-10T00:24:30.658Z,48.90
2023-03-10T00:26:58.337Z,44.92
2023-03-10T00:29:25.662Z,43.05
2023-03-10T00:31:53.492Z,48.55
2023-03-10T00:34:20.837Z,46.80
2023-03-10T00:36:48.479Z,48.40
2023-03-10T00:39:15.883Z,49.75
2023-03-10T00:41:43.613Z,45.65
2023-03-10T00:44:13.873Z,48.42
2023-03-10T00:46:41.734Z,50.25
2023-03-10T00:49:10.302Z,50.33
2023-03-10T00:51:37.934Z,52.47
2023-03-10T00:54:05.348Z,56.75
2023-03-10T00:56:33.013Z,54.33
2023-03-10T00:59:00.687Z,53.65
2023-03-10T01:01:35.879Z,49.60
2023-03-10T01:04:04.884Z,51.97
2023-03-10T01:06:32.723Z,49.80
2023-03-10T01:12:32.307Z,48.53
2023-03-10T01:15:00.021Z,51.80
2023-03-10T01:17:27.404Z,51.85
2023-03-10T01:19:55.041Z,51.05
2023-03-10T01:22:22.412Z,55.88
2023-03-10T01:24:50.083Z,50.83
2023-03-10T01:27:17.468Z,53.08
2023-03-10T01:29:45.144Z,52.30
2023-03-10T01:32:12.524Z,50.97
2023-03-10T01:34:40.369Z,56.78
2023-03-10T01:37:26.295Z,61.78
2023-03-10T01:39:53.962Z,60.25
2023-03-10T01:42:21.373Z,56.58
2023-03-10T01:45:09.616Z,62.15
2023-03-10T01:47:37.086Z,63.42
2023-03-10T01:50:06.611Z,63.38
2023-03-10T01:52:34.711Z,59.85
2023-03-10T01:55:05.544Z,67.05
2023-03-10T01:57:34.586Z,58.70
2023-03-10T02:00:03.267Z,69.15
2023-03-10T02:02:31.957Z,70.50
2023-03-10T02:04:59.664Z,62.88
2023-03-10T02:07:28.938Z,64.75
2023-03-10T02:09:56.736Z,70.22
2023-03-10T02:12:24.162Z,65.65
2023-03-10T02:14:52.456Z,77.05
2023-03-10T02:17:21.263Z,56.03
2023-03-10T02:19:48.908Z,54.28
2023-03-10T02:22:16.274Z,53.50
2023-03-10T02:24:55.920Z,47.33
2023-03-10T02:27:23.230Z,51.13
2023-03-10T02:30:14.003Z,42.55
2023-03-10T02:32:44.466Z,48.28
2023-03-10T02:35:12.476Z,42.60
2023-03-10T02:37:39.930Z,41.65
2023-03-10T02:40:25.469Z,35.53
2023-03-10T02:42:52.855Z,36.05
2023-03-10T02:48:52.568Z,20.90
2023-03-10T02:51:24.549Z,18.65
2023-03-10T02:53:52.035Z,17.27
2023-03-10T02:56:19.714Z,15.50
2023-03-10T02:58:47.133Z,11.35
2023-03-10T03:01:15.082Z,10.57
2023-03-10T03:03:42.544Z,9.70
2023-03-10T03:09:32.008Z,8.57
2023-03-10T03:15:22.652Z,7.40
2023-03-10T03:21:36.023Z,6.97
2023-03-10T03:24:03.900Z,6.03
2023-03-10T03:26:31.251Z,7.38
2023-03-10T03:28:58.988Z,6.00
2023-03-10T03:31:26.429Z,6.57
2023-03-10T03:33:54.145Z,5.90
2023-03-10T03:36:21.492Z,8.88
2023-03-10T03:38:49.153Z,10.13
2023-03-10T03:41:16.508Z,4.50
2023-03-10T03:43:44.162Z,8.20
2023-03-10T03:46:11.748Z,9.00
2023-03-10T03:48:39.324Z,6.32
2023-03-10T03:51:06.673Z,6.80
2023-03-10T03:53:34.278Z,6.70
2023-03-10T03:56:01.689Z,4.00
2023-03-10T03:58:29.360Z,4.97
2023-03-10T04:00:56.752Z,4.03
2023-03-10T04:03:24.484Z,2.70
2023-03-10T04:05:51.826Z,4.15
2023-03-10T04:08:19.401Z,8.13
2023-03-10T04:10:53.469Z,6.85
2023-03-10T04:13:21.514Z,4.80
2023-03-10T04:15:48.965Z,4.25
2023-03-10T04:18:16.679Z,2.30
2023-03-10T04:20:44.019Z,5.60
2023-03-10T04:23:11.610Z,3.67
2023-03-10T04:25:40.445Z,5.25
2023-03-10T04:28:08.094Z,5.80
2023-03-10T04:30:35.408Z,5.10
2023-03-10T04:33:03.196Z,3.17
2023-03-10T04:35:30.619Z,3.85
2023-03-10T04:37:58.240Z,4.80
2023-03-10T04:40:25.618Z,6.30
2023-03-10T04:42:53.320Z,5.65
2023-03-10T04:45:20.718Z,2.47
2023-03-10T04:47:48.484Z,6.93
2023-03-10T04:50:15.808Z,3.53
2023-03-10T04:52:44.212Z,3.58
2023-03-10T04:55:12.548Z,2.70
2023-03-10T04:57:40.214Z,4.68
2023-03-10T05:00:08.070Z,5.03
2023-03-10T05:02:35.981Z,4.10
2023-03-10T05:05:03.594Z,5.40
2023-03-10T05:07:31.280Z,3.55
2023-03-10T05:10:07.222Z,4.53
2023-03-10T05:12:34.850Z,3.50
2023-03-10T05:15:02.237Z,5.00
2023-03-10T05:17:29.872Z,3.42
2023-03-10T05:19:57.857Z,3.78
2023-03-10T05:22:25.516Z,3.55
2023-03-10T05:24:52.854Z,3.00
2023-03-10T05:27:20.515Z,5.63
2023-03-10T05:29:47.915Z,3.42
2023-03-10T05:32:15.589Z,2.85
2023-03-10T05:34:43.004Z,18.63
2023-03-10T05:37:10.662Z,2.88
2023-03-10T05:39:38.064Z,3.55
2023-03-10T05:42:05.822Z,4.18
2023-03-10T05:44:33.185Z,5.40
2023-03-10T05:47:00.846Z,4.68
2023-03-10T05:49:28.296Z,4.13
2023-03-10T05:51:55.883Z,4.25
2023-03-10T05:54:23.401Z,5.22
2023-03-10T05:56:51.051Z,3.92
2023-03-10T05:59:18.406Z,4.80
2023-03-10T06:01:46.059Z,4.50
2023-03-10T06:04:14.702Z,3.90
2023-03-10T06:06:42.352Z,6.03
2023-03-10T06:12:23.822Z,6.82
2023-03-10T06:14:51.166Z,4.18
2023-03-10T06:17:19.831Z,6.40
2023-03-10T06:19:47.184Z,5.22
2023-03-10T06:22:14.952Z,4.90
2023-03-10T06:24:42.293Z,5.13
2023-03-10T06:27:09.982Z,6.30
2023-03-10T06:29:37.688Z,4.63
2023-03-10T06:32:05.847Z,4.32
2023-03-10T06:34:33.381Z,5.57
2023-03-10T06:37:01.045Z,3.38
2023-03-10T06:39:28.502Z,6.00
2023-03-10T06:41:56.120Z,4.75
2023-03-10T06:44:23.486Z,3.38
2023-03-10T06:46:52.389Z,4.53
2023-03-10T06:49:19.871Z,8.95
2023-03-10T06:51:47.518Z,5.60
2023-03-10T06:54:14.939Z,5.30
2023-03-10T06:56:42.614Z,3.80
2023-03-10T06:59:09.928Z,4.93
2023-03-10T07:01:52.613Z,6.38
2023-03-10T07:06:56.936Z,4.35
2023-03-10T07:09:24.405Z,5.10
2023-03-10T07:11:52.067Z,5.13
2023-03-10T07:14:19.393Z,6.38
2023-03-10T07:16:47.124Z,4.22
2023-03-10T07:19:14.556Z,4.50
2023-03-10T07:21:42.234Z,6.20
2023-03-10T07:24:09.610Z,5.63
2023-03-10T07:26:37.546Z,9.15
2023-03-10T07:29:04.945Z,7.95
2023-03-10T07:31:32.663Z,5.70
2023-03-10T07:34:00.273Z,7.45
2023-03-10T07:36:27.985Z,7.32
2023-03-10T07:38:55.610Z,9.95
2023-03-10T07:41:23.390Z,8.23
2023-03-10T07:43:54.251Z,9.90
2023-03-10T07:46:28.377Z,9.65
2023-03-10T07:48:56.111Z,6.25
2023-03-10T07:51:23.966Z,10.00
2023-03-10T07:53:51.400Z,7.80
2023-03-10T07:56:19.111Z,9.82
2023-03-10T07:58:47.574Z,9.02
2023-03-10T08:01:17.052Z,5.13
2023-03-10T08:03:44.876Z,5.88
2023-03-10T08:06:16.131Z,3.95
2023-03-10T08:08:43.513Z,5.20
2023-03-10T08:11:11.393Z,6.78
2023-03-10T08:13:39.257Z,6.05
2023-03-10T08:16:07.636Z,3.92
2023-03-10T08:18:35.044Z,6.47
2023-03-10T08:21:04.475Z,6.03
2023-03-10T08:23:31.902Z,6.82
2023-03-10T08:26:00.264Z,5.55
2023-03-10T08:28:27.945Z,3.17
2023-03-10T08:31:04.460Z,4.95
2023-03-10T08:33:33.194Z,4.88
2023-03-10T08:36:08.020Z,6.25
2023-03-10T08:38:36.493Z,7.43
2023-03-10T08:41:13.282Z,7.28
2023-03-10T08:43:40.801Z,4.90
2023-03-10T08:46:35.126Z,4.55
2023-03-10T08:49:02.643Z,4.90
2023-03-10T08:51:30.430Z,4.45
2023-03-10T08:53:57.830Z,6.65
2023-03-10T08:56:25.561Z,4.78
2023-03-10T08:58:53.278Z,5.38
2023-03-10T09:01:20.933Z,6.68
2023-03-10T09:03:48.374Z,5.68
2023-03-10T09:06:16.001Z,3.90
2023-03-10T09:08:43.453Z,5.55
2023-03-10T09:11:15.246Z,5.00
2023-03-10T09:13:42.634Z,5.32
2023-03-10T09:16:11.524Z,5.28
2023-03-10T09:18:39.357Z,5.75
2023-03-10T09:21:07.511Z,5.78
2023-03-10T09:26:58.873Z,3.35
2023-03-10T09:29:42.325Z,2.65
2023-03-10T09:32:10.796Z,2.90
2023-03-10T09:34:38.578Z,2.15
2023-03-10T09:37:08.375Z,1.35
2023-03-10T09:39:36.205Z,3.78
2023-03-10T09:42:18.963Z,1.75
2023-03-10T09:44:52.358Z,2.67
2023-03-10T09:47:24.972Z,6.50
2023-03-10T09:49:52.762Z,4.65
2023-03-10T09:52:23.014Z,5.00
2023-03-10T09:54:53.420Z,1.58
2023-03-10T09:57:21.859Z,2.63
2023-03-10T09:59:51.732Z,2.45
2023-03-10T10:02:21.323Z,1.38
2023-03-10T10:04:51.720Z,2.03
2023-03-10T10:07:21.007Z,1.40
2023-03-10T10:09:53.498Z,1.92
2023-03-10T10:14:57.198Z,4.68
2023-03-10T10:17:28.079Z,1.00
2023-03-10T10:19:55.794Z,6.55
2023-03-10T10:22:30.656Z,3.15
2023-03-10T10:24:58.323Z,1.67
2023-03-10T10:27:25.686Z,2.67
2023-03-10T10:33:00.531Z,2.42
2023-03-10T10:38:13.095Z,2.72
2023-03-10T10:40:50.868Z,3.55
2023-03-10T10:43:21.221Z,2.53
2023-03-10T10:45:53.274Z,2.78
2023-03-10T10:55:25.748Z,3.72
2023-03-10T10:58:00.402Z,2.38
2023-03-10T11:00:29.090Z,2.28
2023-03-10T11:02:56.749Z,2.03
2023-03-10T11:05:24.430Z,2.50
2023-03-10T11:07:51.880Z,4.32
2023-03-10T11:10:21.896Z,2.85
2023-03-10T11:12:59.817Z,2.47
2023-03-10T11:15:37.861Z,2.20
2023-03-10T11:18:08.230Z,2.95
2023-03-10T11:20:56.894Z,2.58
2023-03-10T11:23:30.060Z,3.42
2023-03-10T11:26:01.859Z,4.43
2023-03-10T11:28:40.390Z,2.20
2023-03-10T11:31:14.031Z,1.88
2023-03-10T11:33:41.381Z,2.45
2023-03-10T11:36:20.985Z,3.05
2023-03-10T11:38:49.765Z,3.65
2023-03-10T11:41:22.863Z,6.50
2023-03-10T11:43:58.314Z,2.33
2023-03-10T11:46:41.861Z,3.17
2023-03-10T11:49:13.211Z,1.92
2023-03-10T11:51:43.828Z,2.83
2023-03-10T11:54:21.726Z,2.13
2023-03-10T11:56:50.453Z,2.50
2023-03-10T11:59:20.564Z,2.00
2023-03-10T12:01:48.186Z,1.58
2023-03-10T12:04:15.476Z,4.03
2023-03-10T12:06:54.928Z,2.35
2023-03-10T12:09:28.128Z,2.50
2023-03-10T12:11:58.250Z,2.10
2023-03-10T12:14:27.024Z,8.32
2023-03-10T12:16:55.352Z,2.20
2023-03-10T12:19:22.721Z,3.92
2023-03-10T12:22:11.069Z,2.45
2023-03-10T12:24:42.559Z,2.85
2023-03-10T12:27:10.418Z,2.97
2023-03-10T12:29:40.030Z,2.10
2023-03-10T12:32:39.088Z,2.72
2023-03-10T12:35:25.128Z,2.60
2023-03-10T12:38:13.315Z,2.65
2023-03-10T12:40:48.416Z,2.58
2023-03-10T12:43:35.896Z,1.58
2023-03-10T12:46:03.570Z,4.75
2023-03-10T12:48:33.169Z,1.90
2023-03-10T12:51:03.137Z,4.28
2023-03-10T12:53:31.029Z,3.88
2023-03-10T12:56:13.639Z,5.68
2023-03-10T12:58:45.135Z,5.32
2023-03-10T13:01:14.882Z,3.95
2023-03-10T13:03:42.699Z,5.07
2023-03-10T13:06:10.093Z,2.40
2023-03-10T13:08:40.453Z,1.83
2023-03-10T13:11:16.218Z,4.75
2023-03-10T13:13:43.898Z,2.15
2023-03-10T13:16:19.502Z,1.90
2023-03-10T13:18:48.275Z,2.65
2023-03-10T13:21:24.975Z,2.00
2023-03-10T13:23:52.785Z,5.25
2023-03-10T13:26:28.289Z,2.90
2023-03-10T13:29:03.257Z,1.98
2023-03-10T13:31:33.768Z,2.78
2023-03-10T13:34:17.869Z,2.03
2023-03-10T13:36:45.210Z,2.97
2023-03-10T13:39:17.843Z,3.47
2023-03-10T13:41:52.734Z,4.28
2023-03-10T13:44:24.003Z,2.10
2023-03-10T13:46:52.984Z,2.33
2023-03-10T13:52:53.844Z,4.03
2023-03-10T13:55:21.530Z,8.15
2023-03-10T13:57:49.949Z,3.97
2023-03-10T14:00:24.686Z,2.42
2023-03-10T14:02:53.583Z,3.85
2023-03-10T14:05:47.553Z,2.17
2023-03-10T14:08:23.555Z,1.70
2023-03-10T14:10:51.805Z,6.18
2023-03-10T14:13:38.004Z,2.45
2023-03-10T14:16:06.102Z,3.53
2023-03-10T14:18:41.726Z,2.90
2023-03-10T14:21:24.818Z,4.72
2023-03-10T14:23:52.748Z,4.78
2023-03-10T14:26:20.733Z,1.85
2023-03-10T14:28:48.261Z,5.88
2023-03-10T14:31:22.742Z,3.10
2023-03-10T14:33:50.555Z,1.73
2023-03-10T14:36:18.277Z,2.75
2023-03-10T14:38:45.634Z,6.45
2023-03-10T14:41:13.930Z,3.58
2023-03-10T14:43:42.061Z,3.55
2023-03-10T14:46:10.880Z,1.50
2023-03-10T14:51:52.410Z,4.50
2023-03-10T14:54:40.052Z,2.50
2023-03-10T14:57:10.928Z,3.83
2023-03-10T14:59:39.239Z,3.83
2023-03-10T15:02:11.864Z,2.38
2023-03-10T15:04:39.241Z,2.60
2023-03-10T15:07:06.910Z,2.97
2023-03-10T15:09:34.224Z,4.00
2023-03-10T15:12:02.525Z,6.07
2023-03-10T15:14:29.923Z,4.97
2023-03-10T15:16:57.729Z,3.97
2023-03-10T15:19:31.321Z,3.78
2023-03-10T15:21:59.136Z,3.67
2023-03-10T15:24:43.647Z,6.10
2023-03-10T15:27:12.089Z,5.40
2023-03-10T15:29:39.497Z,3.33
2023-03-10T15:32:07.218Z,3.42
2023-03-10T15:34:34.605Z,2.80
2023-03-10T15:37:02.302Z,4.10
2023-03-10T15:46:34.323Z,6.47
2023-03-10T15:49:03.591Z,3.70
2023-03-10T15:51:31.193Z,3.55
2023-03-10T15:53:58.892Z,5.22
2023-03-10T16:03:02.669Z,2.10
2023-03-10T16:05:30.125Z,3.25
2023-03-10T16:07:57.805Z,2.47
2023-03-10T16:10:25.167Z,4.57
2023-03-10T16:12:53.041Z,5.18
2023-03-10T16:15:30.126Z,4.10
2023-03-10T16:17:59.108Z,4.93
2023-03-10T16:20:26.574Z,7.55
2023-03-10T16:22:54.535Z,9.00
2023-03-10T16:25:21.999Z,7.13
2023-03-10T16:27:49.711Z,6.00
2023-03-10T16:30:30.730Z,6.45
2023-03-10T16:33:00.888Z,7.60
2023-03-10T16:35:28.409Z,7.43
2023-03-10T16:37:56.081Z,10.82
2023-03-10T16:40:23.632Z,10.82
2023-03-10T16:42:51.316Z,7.32
2023-03-10T16:45:19.004Z,12.60
2023-03-10T16:47:46.644Z,7.22
2023-03-10T16:50:14.001Z,8.23
2023-03-10T16:52:42.201Z,7.47
2023-03-10T16:55:11.836Z,8.57
2023-03-10T16:57:39.651Z,8.10
2023-03-10T17:00:07.450Z,10.82
2023-03-10T17:02:35.045Z,12.15
2023-03-10T17:05:02.490Z,15.00
2023-03-10T17:07:30.367Z,16.08
2023-03-10T17:09:57.745Z,19.27
2023-03-10T17:12:25.454Z,11.45
2023-03-10T17:14:55.043Z,10.30
2023-03-10T17:17:22.976Z,11.15
2023-03-10T17:19:50.955Z,11.05
2023-03-10T17:22:18.659Z,17.27
2023-03-10T17:24:46.168Z,21.30
2023-03-10T17:27:13.797Z,19.33
2023-03-10T17:29:41.125Z,16.30
2023-03-10T17:32:08.787Z,11.25
2023-03-10T17:34:36.119Z,7.25
2023-03-10T17:37:03.745Z,3.17
2023-03-10T17:39:31.599Z,3.30
2023-03-10T17:41:59.700Z,5.60
2023-03-10T17:44:27.045Z,4.18
2023-03-10T17:46:54.870Z,3.92
2023-03-10T17:49:22.279Z,5.18
2023-03-10T17:51:50.667Z,3.90
2023-03-10T17:54:19.487Z,6.05
2023-03-10T17:56:51.009Z,5.90
2023-03-10T17:59:21.670Z,5.15
2023-03-10T18:01:49.623Z,4.88
2023-03-10T18:04:20.343Z,4.20
2023-03-10T18:06:47.986Z,3.35
2023-03-10T18:09:15.389Z,8.55
2023-03-10T18:11:43.058Z,5.72
2023-03-10T18:14:10.653Z,3.75
2023-03-10T18:16:41.171Z,7.72
2023-03-10T18:19:10.722Z,8.88
2023-03-10T18:21:38.689Z,5.32
2023-03-10T18:24:06.503Z,3.95
2023-03-10T18:26:34.325Z,5.45
2023-03-10T18:29:01.784Z,3.95
2023-03-10T18:31:30.766Z,3.58
2023-03-10T18:33:58.898Z,3.20
2023-03-10T18:36:26.744Z,5.20
2023-03-10T18:38:54.166Z,3.10
2023-03-10T18:41:23.368Z,3.90
2023-03-10T18:43:51.268Z,2.38
2023-03-10T18:46:19.438Z,2.13
2023-03-10T18:48:47.134Z,2.78
2023-03-10T18:51:14.893Z,2.03
2023-03-10T18:53:42.332Z,2.47
2023-03-10T18:56:10.115Z,3.85
2023-03-10T18:58:37.587Z,1.45
2023-03-10T19:01:11.808Z,1.80
2023-03-10T19:03:39.365Z,3.33
2023-03-10T19:06:07.082Z,3.85
2023-03-10T19:08:35.159Z,3.70
2023-03-10T19:11:03.122Z,3.35
2023-03-10T19:13:30.727Z,3.97
2023-03-10T19:15:58.420Z,3.58
2023-03-10T19:18:26.078Z,6.22
2023-03-10T19:20:58.470Z,1.67
2023-03-10T19:25:53.798Z,3.55
2023-03-10T19:28:22.081Z,2.80
2023-03-10T19:30:50.311Z,2.85
2023-03-10T19:33:17.938Z,4.80
2023-03-10T19:35:45.688Z,2.90
2023-03-10T19:38:13.011Z,1.90
2023-03-10T19:40:41.057Z,2.67
2023-03-10T19:43:08.903Z,4.78
2023-03-10T19:52:45.100Z,4.43
2023-03-10T19:55:22.873Z,11.50
2023-03-10T19:57:51.308Z,4.28
2023-03-10T20:00:20.764Z,2.67
2023-03-10T20:02:48.239Z,5.78
2023-03-10T20:05:16.191Z,4.30
2023-03-10T20:07:44.279Z,4.45
2023-03-10T20:10:12.986Z,6.63
2023-03-10T20:12:40.399Z,10.05
2023-03-10T20:15:08.216Z,10.18
2023-03-10T20:17:35.663Z,6.20
2023-03-10T20:20:04.046Z,6.53
2023-03-10T20:22:31.386Z,5.35
2023-03-10T20:24:59.192Z,10.52
2023-03-10T20:27:26.593Z,5.22
2023-03-10T20:29:54.300Z,14.75
2023-03-10T20:32:21.749Z,7.47
2023-03-10T20:34:51.336Z,4.55
2023-03-10T20:37:19.092Z,5.53
2023-03-10T20:39:47.148Z,5.03
2023-03-10T20:42:15.053Z,12.48
2023-03-10T20:44:43.460Z,4.78
2023-03-10T20:47:11.513Z,5.45
2023-03-10T20:49:39.329Z,4.97
2023-03-10T20:52:06.782Z,6.50
2023-03-10T20:54:34.459Z,4.75
2023-03-10T20:57:01.944Z,7.63
2023-03-10T20:59:29.638Z,4.80
2023-03-10T21:01:57.832Z,6.40
2023-03-10T21:04:29.445Z,6.18
2023-03-10T21:06:56.852Z,6.57
2023-03-10T21:09:24.641Z,7.35
2023-03-10T21:11:51.970Z,6.40
2023-03-10T21:14:19.941Z,7.28
2023-03-10T21:16:47.397Z,3.53
2023-03-10T21:19:34.762Z,3.35
2023-03-10T21:22:05.064Z,5.22
2023-03-10T21:24:45.659Z,3.63
2023-03-10T21:27:13.756Z,1.98
2023-03-10T21:29:42.046Z,2.40
2023-03-10T21:32:11.989Z,2.13
2023-03-10T21:34:39.958Z,4.07
2023-03-10T21:37:07.613Z,2.72
2023-03-10T21:39:37.848Z,2.55
2023-03-10T21:42:05.334Z,2.45
2023-03-10T21:44:32.961Z,2.35
2023-03-10T21:47:00.342Z,3.67
2023-03-10T21:49:28.020Z,3.35
2023-03-10T21:51:55.332Z,2.65
2023-03-10T21:57:36.541Z,2.90
2023-03-10T22:00:05.072Z,2.70
2023-03-10T22:02:32.397Z,3.08
2023-03-10T22:05:09.282Z,3.35
2023-03-10T22:07:36.706Z,3.28
2023-03-10T22:10:04.804Z,3.65
2023-03-10T22:12:32.311Z,3.38
2023-03-10T22:15:00.125Z,3.53
2023-03-10T22:17:27.593Z,2.40
2023-03-10T22:19:55.217Z,4.18
2023-03-10T22:22:25.490Z,2.65
2023-03-10T22:24:53.207Z,3.30
2023-03-10T22:27:20.608Z,3.20
2023-03-10T22:29:48.290Z,2.70
2023-03-10T22:32:15.648Z,6.07
2023-03-10T22:34:43.357Z,3.70
2023-03-10T22:37:10.674Z,3.50
2023-03-10T22:39:38.258Z,1.73
2023-03-10T22:42:05.717Z,2.55
2023-03-10T22:44:36.567Z,2.28
2023-03-10T22:47:04.418Z,2.10
2023-03-10T22:49:32.245Z,2.70
2023-03-10T22:55:17.371Z,2.33
2023-03-10T23:00:59.555Z,1.38
2023-03-10T23:03:27.074Z,3.17
2023-03-10T23:05:54.873Z,4.22
2023-03-10T23:08:25.442Z,4.63
2023-03-10T23:10:53.082Z,4.03
2023-03-10T23:13:20.706Z,2.88
2023-03-10T23:18:19.936Z,3.35
2023-03-10T23:20:48.069Z,3.42
2023-03-10T23:23:37.477Z,2.70
2023-03-10T23:26:05.411Z,3.95
2023-03-10T23:28:41.793Z,3.83
2023-03-10T23:31:11.539Z,3.88
2023-03-10T23:33:39.387Z,3.22
2023-03-10T23:36:10.081Z,4.32
2023-03-10T23:38:38.214Z,2.80
2023-03-10T23:41:06.539Z,2.30
2023-03-10T23:43:34.671Z,1.63
2023-03-10T23:49:17.461Z,3.00
2023-03-10T23:51:45.062Z,1.10
2023-03-10T23:54:12.424Z,1.48
2023-03-10T23:56:40.148Z,1.63
2023-03-10T23:59:09.373Z,1.92
